createdAt,value
2022-10-13T13:41:52.079Z,16.90
2022-10-13T13:43:24.357Z,16.70
2022-10-13T13:44:56.760Z,16.30
2022-10-13T13:46:29.602Z,16.30
2022-10-13T13:48:02.177Z,16.10
2022-10-13T13:49:34.604Z,15.80
2022-10-13T13:51:09.188Z,15.70
2022-10-13T13:52:41.794Z,15.60
2022-10-13T13:54:13.901Z,15.30
2022-10-13T13:55:47.434Z,15.40
2022-10-13T13:57:20.345Z,15.50
2022-10-13T13:58:52.819Z,15.40
2022-10-13T14:00:25.408Z,15.50
2022-10-13T14:01:57.725Z,15.40
2022-10-13T14:03:29.926Z,15.40
2022-10-13T14:05:02.066Z,15.30
2022-10-13T14:06:34.169Z,15.40
2022-10-13T14:08:06.714Z,15.30
2022-10-13T14:09:39.029Z,15.20
2022-10-13T14:11:11.294Z,15.20
2022-10-13T14:12:43.408Z,15.30
2022-10-13T14:14:15.663Z,15.10
2022-10-13T14:15:57.572Z,15.20
2022-10-13T14:17:29.717Z,15.20
2022-10-13T14:19:01.793Z,15.20
2022-10-13T14:20:34.100Z,15.20
2022-10-13T14:22:09.491Z,15.10
2022-10-13T14:23:46.834Z,15.00
2022-10-13T14:25:19.310Z,14.90
2022-10-13T14:26:51.559Z,14.90
2022-10-13T14:28:23.698Z,15.00
2022-10-13T14:29:56.004Z,15.00
2022-10-13T14:31:28.897Z,14.90
2022-10-13T14:33:01.953Z,14.80
2022-10-13T14:34:34.160Z,14.80
2022-10-13T14:36:09.223Z,14.80
2022-10-13T14:37:41.400Z,14.80
2022-10-13T14:39:13.774Z,14.70
2022-10-13T14:40:46.009Z,14.70
2022-10-13T14:42:18.336Z,14.60
2022-10-13T14:43:56.887Z,14.60
2022-10-13T14:45:29.161Z,14.60
2022-10-13T14:47:01.221Z,14.60
2022-10-13T14:48:35.313Z,14.50
2022-10-13T14:50:07.978Z,14.40
2022-10-13T14:51:40.269Z,14.40
2022-10-13T14:53:15.337Z,14.30
2022-10-13T14:54:47.606Z,14.30
2022-10-13T14:56:21.408Z,14.30
2022-10-13T14:57:53.735Z,14.20
2022-10-13T14:59:25.809Z,14.30
2022-10-13T15:00:58.178Z,14.20
2022-10-13T15:02:30.320Z,14.20
2022-10-13T15:04:03.301Z,14.10
2022-10-13T15:05:35.365Z,14.10
2022-10-13T15:07:07.740Z,14.10
2022-10-13T15:08:39.995Z,14.00
2022-10-13T15:10:12.369Z,13.90
2022-10-13T15:11:46.241Z,13.90
2022-10-13T15:13:18.347Z,13.90
2022-10-13T15:14:50.418Z,13.80
2022-10-13T15:16:28.652Z,13.70
2022-10-13T15:18:01.082Z,13.70
2022-10-13T15:19:33.204Z,13.50
2022-10-13T15:21:05.375Z,13.50
2022-10-13T15:22:37.854Z,13.40
2022-10-13T15:24:11.364Z,13.40
2022-10-13T15:25:56.310Z,13.40
2022-10-13T15:27:28.407Z,13.30
2022-10-13T15:29:00.816Z,13.30
2022-10-13T15:30:34.073Z,13.20
2022-10-13T15:32:18.755Z,13.10
2022-10-13T15:33:53.399Z,13.10
2022-10-13T15:35:30.069Z,13.20
2022-10-13T15:37:02.123Z,13.20
2022-10-13T15:38:34.231Z,13.10
2022-10-13T15:40:06.944Z,13.10
2022-10-13T15:41:39.509Z,13.10
2022-10-13T15:43:12.441Z,13.10
2022-10-13T15:45:08.818Z,13.10
2022-10-13T15:46:37.852Z,13.00
2022-10-13T15:48:15.950Z,13.00
2022-10-13T15:49:48.020Z,13.00
2022-10-13T15:51:22.264Z,12.90
2022-10-13T15:52:54.611Z,12.90
2022-10-13T15:54:27.202Z,12.80
2022-10-13T15:56:02.220Z,12.80
2022-10-13T15:57:34.294Z,12.80
2022-10-13T15:59:06.512Z,12.70
2022-10-13T16:00:39.856Z,12.60
2022-10-13T16:02:11.940Z,12.50
2022-10-13T16:03:43.997Z,12.50
2022-10-13T16:05:16.050Z,12.40
2022-10-13T16:06:48.733Z,12.40
2022-10-13T16:08:20.971Z,12.30
2022-10-13T16:09:53.243Z,12.30
2022-10-13T16:11:26.371Z,12.20
2022-10-13T16:12:59.248Z,12.20
2022-10-13T16:14:31.374Z,12.10
2022-10-13T16:16:03.929Z,12.10
2022-10-13T16:17:36.933Z,12.00
2022-10-13T16:19:09.301Z,12.00
2022-10-13T16:20:45.305Z,12.00
2022-10-13T16:22:18.061Z,11.90
2022-10-13T16:23:50.895Z,11.90
2022-10-13T16:25:23.428Z,11.90
2022-10-13T16:26:55.612Z,11.80
2022-10-13T16:28:27.839Z,11.80
2022-10-13T16:29:59.937Z,11.80
2022-10-13T16:31:32.763Z,11.70
2022-10-13T16:33:04.902Z,11.70
2022-10-13T16:34:37.692Z,11.70
2022-10-13T16:36:12.279Z,11.70
2022-10-13T16:37:44.713Z,11.60
2022-10-13T16:39:16.848Z,11.60
2022-10-13T16:40:51.982Z,11.50
2022-10-13T16:42:24.240Z,11.50
2022-10-13T16:43:56.644Z,11.50
2022-10-13T16:45:47.952Z,11.40
2022-10-13T16:47:21.222Z,11.40
2022-10-13T16:48:54.038Z,11.40
2022-10-13T16:50:26.191Z,11.40
2022-10-13T16:51:58.339Z,11.30
2022-10-13T16:53:30.573Z,11.30
2022-10-13T16:55:04.149Z,11.30
2022-10-13T16:56:36.474Z,11.30
2022-10-13T16:58:09.215Z,11.20
2022-10-13T16:59:41.289Z,11.30
2022-10-13T17:01:13.750Z,11.30
2022-10-13T17:02:47.045Z,11.30
2022-10-13T17:04:22.168Z,11.30
2022-10-13T17:05:54.511Z,11.20
2022-10-13T17:07:26.923Z,11.20
2022-10-13T17:09:00.510Z,11.20
2022-10-13T17:10:34.246Z,11.10
2022-10-13T17:12:07.076Z,11.10
2022-10-13T17:13:39.479Z,11.10
2022-10-13T17:15:11.751Z,11.00
2022-10-13T17:16:45.147Z,11.00
2022-10-13T17:18:17.542Z,11.00
2022-10-13T17:19:50.154Z,11.00
2022-10-13T17:21:22.854Z,10.90
2022-10-13T17:22:55.002Z,10.90
2022-10-13T17:24:27.345Z,10.90
2022-10-13T17:26:05.995Z,10.90
2022-10-13T17:27:38.096Z,10.90
2022-10-13T17:29:10.207Z,10.80
2022-10-13T17:30:43.194Z,10.70
2022-10-13T17:32:15.349Z,10.70
2022-10-13T17:33:48.534Z,10.70
2022-10-13T17:35:20.656Z,10.60
2022-10-13T17:36:52.966Z,10.60
2022-10-13T17:38:25.075Z,10.50
2022-10-13T17:39:57.205Z,10.50
2022-10-13T17:41:29.443Z,10.40
2022-10-13T17:43:02.632Z,10.40
2022-10-13T17:44:34.720Z,10.40
2022-10-13T17:48:06.523Z,10.30
2022-10-13T17:49:38.567Z,10.20
2022-10-13T17:51:13.643Z,10.20
2022-10-13T17:52:45.794Z,10.20
2022-10-13T17:54:19.452Z,10.20
2022-10-13T17:55:51.754Z,10.10
2022-10-13T17:57:24.106Z,10.10
2022-10-13T17:58:56.825Z,10.00
2022-10-13T18:00:29.728Z,10.00
2022-10-13T18:02:02.096Z,10.00
2022-10-13T18:03:34.811Z,10.00
2022-10-13T18:05:07.240Z,10.00
2022-10-13T18:06:40.899Z,10.00
2022-10-13T18:08:13.470Z,10.00
2022-10-13T18:09:45.625Z,9.90
2022-10-13T18:11:21.493Z,9.90
2022-10-13T18:12:53.773Z,10.00
2022-10-13T18:14:26.090Z,9.90
2022-10-13T18:16:10.762Z,9.90
2022-10-13T18:17:42.874Z,9.90
2022-10-13T18:19:15.249Z,9.90
2022-10-13T18:20:47.342Z,9.90
2022-10-13T18:22:19.776Z,9.90
2022-10-13T18:23:53.042Z,9.90
2022-10-13T18:25:25.438Z,9.90
2022-10-13T18:26:57.570Z,9.90
2022-10-13T18:28:32.162Z,9.90
2022-10-13T18:30:04.789Z,9.90
2022-10-13T18:31:38.985Z,9.90
2022-10-13T18:33:11.427Z,9.90
2022-10-13T18:34:43.598Z,9.90
2022-10-13T18:36:23.462Z,9.90
2022-10-13T18:37:56.381Z,9.90
2022-10-13T18:39:29.318Z,9.90
2022-10-13T18:41:01.516Z,9.90
2022-10-13T18:42:33.734Z,9.90
2022-10-13T18:44:07.067Z,9.90
2022-10-13T18:45:39.174Z,9.90
2022-10-13T18:47:11.263Z,9.90
2022-10-13T18:48:43.440Z,9.90
2022-10-13T18:50:15.876Z,9.80
2022-10-13T18:51:50.794Z,9.80
2022-10-13T18:53:23.165Z,9.80
2022-10-13T18:54:55.297Z,9.80
2022-10-13T18:56:30.158Z,9.80
2022-10-13T18:58:02.305Z,9.80
2022-10-13T18:59:38.733Z,9.80
2022-10-13T19:01:13.813Z,9.80
2022-10-13T19:02:46.743Z,9.80
2022-10-13T19:04:18.923Z,9.70
2022-10-13T19:05:50.986Z,9.70
2022-10-13T19:07:23.321Z,9.70
2022-10-13T19:09:06.941Z,9.70
2022-10-13T19:10:39.513Z,9.70
2022-10-13T19:12:11.594Z,9.70
2022-10-13T19:13:44.545Z,9.70
2022-10-13T19:15:17.032Z,9.70
2022-10-13T19:16:49.169Z,9.70
2022-10-13T19:18:21.334Z,9.70
2022-10-13T19:19:53.516Z,9.70
2022-10-13T19:21:26.019Z,9.70
2022-10-13T19:22:58.308Z,9.70
2022-10-13T19:24:30.517Z,9.80
2022-10-13T19:26:15.227Z,9.80
2022-10-13T19:27:47.691Z,9.80
2022-10-13T19:29:19.878Z,9.70
2022-10-13T19:30:52.269Z,9.70
2022-10-13T19:32:24.504Z,9.70
2022-10-13T19:33:58.412Z,9.70
2022-10-13T19:35:30.660Z,9.70
2022-10-13T19:37:04.638Z,9.70
2022-10-13T19:38:37.628Z,9.70
2022-10-13T19:40:10.079Z,9.70
2022-10-13T19:41:43.667Z,9.60
2022-10-13T19:43:21.555Z,9.60
2022-10-13T19:44:53.735Z,9.60
2022-10-13T19:46:26.279Z,9.60
2022-10-13T19:47:58.536Z,9.60
2022-10-13T19:49:30.646Z,9.60
2022-10-13T19:51:06.608Z,9.50
2022-10-13T19:52:39.273Z,9.50
2022-10-13T19:54:12.303Z,9.50
2022-10-13T19:55:46.907Z,9.50
2022-10-13T19:57:19.550Z,9.50
2022-10-13T19:58:53.174Z,9.50
2022-10-13T20:00:25.455Z,9.50
2022-10-13T20:01:57.859Z,9.50
2022-10-13T20:03:30.184Z,9.40
2022-10-13T20:05:02.658Z,9.40
2022-10-13T20:06:36.767Z,9.40
2022-10-13T20:08:11.442Z,9.40
2022-10-13T20:09:43.668Z,9.30
2022-10-13T20:11:23.420Z,9.30
2022-10-13T20:12:56.690Z,9.30
2022-10-13T20:14:28.944Z,9.30
2022-10-13T20:16:06.912Z,9.30
2022-10-13T20:17:39.444Z,9.30
2022-10-13T20:19:13.454Z,9.20
2022-10-13T20:20:45.524Z,9.20
2022-10-13T20:22:17.735Z,9.30
2022-10-13T20:23:50.984Z,9.20
2022-10-13T20:25:23.068Z,9.20
2022-10-13T20:26:55.180Z,9.20
2022-10-13T20:28:28.027Z,9.20
2022-10-13T20:30:00.820Z,9.30
2022-10-13T20:31:33.143Z,9.20
2022-10-13T20:33:05.692Z,9.20
2022-10-13T20:34:38.041Z,9.20
2022-10-13T20:36:13.563Z,9.20
2022-10-13T20:37:45.814Z,9.20
2022-10-13T20:39:17.893Z,9.20
2022-10-13T20:40:49.940Z,9.30
2022-10-13T20:42:22.213Z,9.30
2022-10-13T20:43:56.411Z,9.20
2022-10-13T20:45:28.447Z,9.20
2022-10-13T20:47:00.563Z,9.20
2022-10-13T20:50:40.375Z,9.30
2022-10-13T20:52:12.426Z,9.20
2022-10-13T20:53:45.914Z,9.20
2022-10-13T20:55:18.028Z,9.20
2022-10-13T20:56:50.119Z,9.10
2022-10-13T20:58:33.251Z,9.20
2022-10-13T21:00:06.634Z,9.20
2022-10-13T21:01:39.492Z,9.10
2022-10-13T21:04:59.906Z,9.00
2022-10-13T21:06:32.852Z,9.00
2022-10-13T21:08:05.485Z,9.00
2022-10-13T21:09:37.637Z,9.00
2022-10-13T21:11:12.247Z,9.00
2022-10-13T21:12:44.594Z,9.00
2022-10-13T21:14:16.710Z,9.00
2022-10-13T21:15:49.974Z,9.00
2022-10-13T21:17:24.970Z,9.00
2022-10-13T21:18:59.311Z,9.10
2022-10-13T21:20:35.607Z,9.10
2022-10-13T21:22:11.787Z,9.00
2022-10-13T21:23:45.817Z,9.00
2022-10-13T21:25:18.479Z,9.10
2022-10-13T21:26:51.038Z,9.10
2022-10-13T21:28:24.961Z,9.10
2022-10-13T21:29:57.319Z,9.10
2022-10-13T21:31:29.735Z,9.10
2022-10-13T21:33:03.003Z,9.00
2022-10-13T21:34:36.150Z,9.10
2022-10-13T21:36:17.064Z,9.10
2022-10-13T21:37:49.537Z,9.10
2022-10-13T21:39:21.912Z,9.20
2022-10-13T21:40:54.179Z,9.10
2022-10-13T21:42:30.220Z,9.20
2022-10-13T21:44:02.705Z,9.20
2022-10-13T21:45:35.198Z,9.20
2022-10-13T21:47:07.717Z,9.20
2022-10-13T21:48:41.113Z,9.20
2022-10-13T21:50:13.185Z,9.30
2022-10-13T21:51:45.994Z,9.30
2022-10-13T21:53:18.279Z,9.30
2022-10-13T21:54:51.032Z,9.30
2022-10-13T21:56:23.875Z,9.20
2022-10-13T21:57:58.808Z,9.30
2022-10-13T21:59:34.415Z,9.30
2022-10-13T22:01:07.741Z,9.30
2022-10-13T22:02:42.003Z,9.30
2022-10-13T22:04:14.820Z,9.30
2022-10-13T22:05:46.956Z,9.30
2022-10-13T22:07:19.421Z,9.30
2022-10-13T22:08:53.982Z,9.30
2022-10-13T22:10:26.554Z,9.20
2022-10-13T22:11:59.410Z,9.20
2022-10-13T22:13:32.230Z,9.20
2022-10-13T22:15:04.700Z,9.20
2022-10-13T22:16:41.330Z,9.20
2022-10-13T22:18:13.410Z,9.20
2022-10-13T22:19:45.630Z,9.10
2022-10-13T22:21:20.128Z,9.10
2022-10-13T22:22:52.354Z,9.10
2022-10-13T22:24:24.411Z,9.20
2022-10-13T22:25:56.924Z,9.10
2022-10-13T22:27:28.947Z,9.10
2022-10-13T22:29:03.772Z,9.10
2022-10-13T22:30:38.670Z,9.10
2022-10-13T22:32:10.796Z,9.10
2022-10-13T22:33:43.868Z,9.10
2022-10-13T22:35:16.188Z,9.10
2022-10-13T22:36:48.372Z,9.10
2022-10-13T22:38:20.432Z,9.10
2022-10-13T22:39:55.971Z,9.20
2022-10-13T22:41:28.696Z,9.20
2022-10-13T22:43:00.811Z,9.10
2022-10-13T22:44:32.925Z,9.10
2022-10-13T22:46:05.248Z,9.20
2022-10-13T22:47:37.493Z,9.10
2022-10-13T22:49:10.632Z,9.10
2022-10-13T22:50:42.740Z,9.10
2022-10-13T22:52:14.772Z,9.10
2022-10-13T22:53:48.934Z,9.10
2022-10-13T22:55:21.115Z,9.10
2022-10-13T22:56:53.189Z,9.10
2022-10-13T22:58:25.685Z,9.10
2022-10-13T22:59:57.945Z,9.10
2022-10-13T23:01:30.523Z,9.10
2022-10-13T23:03:02.924Z,9.10
2022-10-13T23:04:36.051Z,9.10
2022-10-13T23:06:13.635Z,9.20
2022-10-13T23:07:46.979Z,9.10
2022-10-13T23:09:19.047Z,9.20
2022-10-13T23:10:51.175Z,9.20
2022-10-13T23:12:23.877Z,9.20
2022-10-13T23:13:57.477Z,9.30
2022-10-13T23:15:31.924Z,9.30
2022-10-13T23:17:05.513Z,9.40
2022-10-13T23:18:40.333Z,9.40
2022-10-13T23:20:14.671Z,9.50
2022-10-13T23:21:48.827Z,9.50
2022-10-13T23:23:21.257Z,9.50
2022-10-13T23:24:54.540Z,9.50
2022-10-13T23:26:27.692Z,9.60
2022-10-13T23:28:00.594Z,9.60
2022-10-13T23:29:33.351Z,9.70
2022-10-13T23:31:09.027Z,9.70
2022-10-13T23:32:41.242Z,9.70
2022-10-13T23:34:13.976Z,9.70
2022-10-13T23:35:56.807Z,9.70
2022-10-13T23:37:30.360Z,9.70
2022-10-13T23:39:06.302Z,9.70
2022-10-13T23:40:41.988Z,9.80
2022-10-13T23:42:15.341Z,9.80
2022-10-13T23:43:48.214Z,9.80
2022-10-13T23:45:20.718Z,9.80
2022-10-13T23:46:53.270Z,9.80
2022-10-13T23:48:25.518Z,9.70
2022-10-13T23:49:57.844Z,9.80
2022-10-13T23:51:30.362Z,9.80
2022-10-13T23:53:03.385Z,9.80
2022-10-13T23:54:35.515Z,9.70
2022-10-13T23:56:08.975Z,9.80
2022-10-13T23:57:41.019Z,9.80
2022-10-13T23:59:13.192Z,9.80
